Lozano, Texas
Current Conditions -  °F | °C
As of 7:52 AM on Wednesday 22 Oct 2014 (Local Time) from KHRL Reporting Station
Haze Haze  
Wind Chill: 71°   Ceiling: 6000
Heat Index: 71°   Visibility: 6mi
Dew Point: 70°   Wind: 3mph
Humidity: 96%   Direction: 350°N
Pressure: 29.97"   Gusts: NA
Location:  26.19°N, 97.54°W
Report Text: KHRL 221252Z 35003KT 6SM BR BKN060 22/21 A2997 RMK AO2 RAE1155 SLP150 P0001 T02170211
Loading
Personal Weather Stations






























Interactive Weather Map
Tropical Storm Tracking
New forecast layout! Learn more

10-Day Weather Forecast

Advertisements
Track Severe Weather on mobile